Time;durP1;ratioP1;P1;durP2;ratioP2;P2;SDS_P1;SDS_P2;PMS_P1;PMS_P2;Temp;Humidity;BMP_temperature;BMP_pressure;BME280_temperature;BME280_humidity;BME280_pressure;Samples;Min_cycle;Max_cycle;Signal;HPM_P1;HPM_P2
2022/12/24 00:00:34;;;;;;;117.35;17.55;;;;;;;13.32;97.26;94081.38;5081284;28;20326;-87
2022/12/24 00:02:59;;;;;;;56.70;15.25;;;;;;;13.31;100.00;94085.09;5064671;28;20027;-87
2022/12/24 00:05:25;;;;;;;82.70;16.27;;;;;;;13.21;100.00;94099.22;5080452;28;20353;-87
2022/12/24 00:07:50;;;;;;;125.43;16.98;;;;;;;12.85;100.00;94100.59;5064250;28;20066;-87
2022/12/24 00:10:16;;;;;;;90.30;17.58;;;;;;;12.87;95.63;94108.19;5081110;28;20040;-87
2022/12/24 00:12:41;;;;;;;119.65;18.17;;;;;;;12.34;100.00;94112.66;5081130;28;20032;-87
2022/12/24 00:15:07;;;;;;;116.55;18.67;;;;;;;12.71;100.00;94126.84;5081001;28;20026;-87
2022/12/24 00:17:33;;;;;;;50.70;14.82;;;;;;;12.80;100.00;94128.81;5081016;28;20036;-87
2022/12/24 00:19:58;;;;;;;63.95;15.73;;;;;;;12.84;100.00;94132.44;5064523;28;20027;-88
2022/12/24 00:22:24;;;;;;;44.90;14.50;;;;;;;12.94;100.00;94134.13;5099186;28;20036;-87
2022/12/24 00:24:49;;;;;;;26.40;12.85;;;;;;;12.84;98.39;94129.81;5099170;28;20089;-88
2022/12/24 00:27:14;;;;;;;25.67;11.88;;;;;;;12.66;98.97;94136.66;5099100;28;20040;-87
2022/12/24 00:29:40;;;;;;;31.60;13.80;;;;;;;11.85;100.00;94133.72;5080814;28;20490;-87
2022/12/24 00:32:09;;;;;;;52.95;13.73;;;;;;;12.21;100.00;94160.63;5080871;28;20024;-87
2022/12/24 00:34:37;;;;;;;733.05;42.35;;;;;;;12.05;100.00;94186.28;5098996;28;20140;-87
2022/12/24 00:37:03;;;;;;;52.10;13.88;;;;;;;12.49;100.00;94206.25;5064078;28;20457;-88
2022/12/24 00:39:28;;;;;;;672.13;45.33;;;;;;;11.69;100.00;94201.34;5098895;28;20078;-87
2022/12/24 00:41:54;;;;;;;92.93;15.90;;;;;;;12.30;100.00;94193.88;5098836;28;20084;-87
2022/12/24 00:44:19;;;;;;;26.92;12.70;;;;;;;12.42;100.00;94188.22;5098779;28;20338;-88
2022/12/24 00:46:44;;;;;;;120.07;17.13;;;;;;;12.16;100.00;94190.38;5080267;28;20039;-88
2022/12/24 00:49:11;;;;;;;369.05;30.25;;;;;;;11.25;100.00;94203.03;5098707;28;20425;-87
2022/12/24 00:51:37;;;;;;;65.20;16.73;;;;;;;11.43;100.00;94198.94;5063916;28;20023;-88
2022/12/24 00:54:02;;;;;;;82.88;15.48;;;;;;;11.91;100.00;94196.66;5080517;28;20032;-88
2022/12/24 00:56:28;;;;;;;106.90;17.38;;;;;;;11.81;100.00;94190.44;5063718;28;20028;-87
2022/12/24 00:58:54;;;;;;;347.45;25.90;;;;;;;11.00;100.00;94194.31;5098514;28;20035;-87
2022/12/24 01:01:20;;;;;;;156.35;20.52;;;;;;;11.18;100.00;94203.34;5080402;28;20043;-87
2022/12/24 01:03:45;;;;;;;351.88;28.55;;;;;;;10.97;100.00;94194.84;5080303;28;20042;-88
2022/12/24 01:06:14;;;;;;;75.05;18.08;;;;;;;11.53;100.00;94205.19;5080152;28;20145;-87
2022/12/24 01:08:40;;;;;;;70.95;21.15;;;;;;;11.20;100.00;94191.81;5098328;28;20119;-88
2022/12/24 01:11:06;;;;;;;61.85;20.63;;;;;;;11.38;100.00;94209.50;5080261;28;20055;-88
2022/12/24 01:13:32;;;;;;;54.10;20.58;;;;;;;11.29;100.00;94224.25;5098249;28;20401;-87
2022/12/24 01:16:01;;;;;;;54.15;20.23;;;;;;;11.97;100.00;94214.72;5097569;28;20074;-88
2022/12/24 01:18:27;;;;;;;58.78;19.23;;;;;;;12.01;100.00;94218.34;5063052;28;20028;-88
2022/12/24 01:21:00;;;;;;;61.08;21.40;;;;;;;12.38;100.00;94225.84;5080108;28;20055;-88
2022/12/24 01:23:27;;;;;;;53.08;19.92;;;;;;;11.78;100.00;94235.63;5063238;28;20375;-88
2022/12/24 01:25:52;;;;;;;64.95;21.85;;;;;;;12.11;100.00;94240.31;5062828;28;20062;-87
2022/12/24 01:28:19;;;;;;;67.80;23.75;;;;;;;12.40;100.00;94236.84;5079984;28;20052;-88
2022/12/24 01:30:44;;;;;;;59.10;22.67;;;;;;;11.70;100.00;94225.75;5063232;28;20020;-87
2022/12/24 01:33:09;;;;;;;66.53;22.83;;;;;;;12.41;100.00;94220.00;5097945;28;20111;-87
2022/12/24 01:35:39;;;;;;;56.85;21.95;;;;;;;12.77;100.00;94224.81;5079784;28;20028;-88
2022/12/24 01:38:04;;;;;;;62.63;20.83;;;;;;;13.17;100.00;94224.50;5079477;28;20020;-87
2022/12/24 01:43:31;;;;;;;47.67;18.85;;;;;;;12.83;100.00;94244.69;5040177;28;20089;-87
2022/12/24 01:46:03;;;;;;;52.97;20.15;;;;;;;12.82;100.00;94250.22;5079369;28;20114;-87
2022/12/24 01:49:07;;;;;;;53.25;20.10;;;;;;;12.90;100.00;94252.25;5079645;28;20077;-88
2022/12/24 01:51:39;;;;;;;;;;;;;;;12.72;100.00;94269.56;4979825;28;20411;-88
2022/12/24 01:54:19;;;;;;;41.40;16.92;;;;;;;13.30;100.00;94275.59;4979495;28;19909;-88
2022/12/24 01:56:53;;;;;;;44.05;18.45;;;;;;;12.99;100.00;94283.94;5039733;28;20044;-88
2022/12/24 01:59:19;;;;;;;51.00;20.05;;;;;;;12.86;100.00;94269.66;5097252;28;20069;-88
2022/12/24 02:01:46;;;;;;;45.78;18.42;;;;;;;13.50;100.00;94268.50;5079212;28;20028;-88
2022/12/24 02:04:43;;;;;;;42.63;17.70;;;;;;;13.98;100.00;94284.03;5079342;28;20028;-87
2022/12/24 02:07:09;;;;;;;33.55;15.85;;;;;;;13.90;100.00;94311.00;5079323;28;20085;-87
2022/12/24 02:09:35;;;;;;;42.10;18.38;;;;;;;13.55;100.00;94315.78;5079097;28;20400;-88
2022/12/24 02:12:02;;;;;;;43.40;17.20;;;;;;;13.79;100.00;94307.78;5079333;28;20039;-87
2022/12/24 02:14:28;;;;;;;32.22;15.82;;;;;;;14.14;100.00;94300.34;5079235;28;20387;-87
2022/12/24 02:16:59;;;;;;;27.05;13.30;;;;;;;14.61;98.67;94293.41;5079262;28;20036;-88
2022/12/24 02:19:45;;;;;;;32.65;15.15;;;;;;;14.55;97.86;94301.44;5095152;28;20051;-88
2022/12/24 02:22:10;;;;;;;27.80;14.18;;;;;;;14.20;98.77;94322.13;5094589;28;20043;-88
2022/12/24 02:25:11;;;;;;;30.40;13.43;;;;;;;14.33;99.42;94311.84;5086230;28;20354;-88
2022/12/24 02:27:50;;;;;;;29.80;14.35;;;;;;;14.19;100.00;94303.94;5067661;28;20055;-89
2022/12/24 02:30:44;;;;;;;44.05;15.55;;;;;;;14.41;96.71;94309.31;5076217;28;20038;-88
2022/12/24 02:33:30;;;;;;;25.95;13.48;;;;;;;13.95;94.15;94302.25;5066741;28;20082;-88
2022/12/24 02:36:15;;;;;;;29.85;13.45;;;;;;;14.12;100.00;94291.94;5062710;28;20027;-88
2022/12/24 02:38:44;;;;;;;248.18;20.85;;;;;;;13.93;99.94;94294.66;5062981;28;20032;-88
2022/12/24 02:41:16;;;;;;;615.92;40.83;;;;;;;13.34;100.00;94283.72;5080589;28;20453;-88
2022/12/24 02:43:44;;;;;;;834.08;51.03;;;;;;;13.32;100.00;94283.22;5062327;28;20024;-88
2022/12/24 02:46:17;;;;;;;35.28;14.75;;;;;;;13.91;100.00;94291.50;5062573;28;20032;-87
2022/12/24 02:48:44;;;;;;;36.58;15.73;;;;;;;14.08;100.00;94285.69;5083398;28;20024;-88
2022/12/24 02:51:10;;;;;;;35.42;14.75;;;;;;;14.13;99.68;94282.19;5062875;28;20036;-87
2022/12/24 02:53:36;;;;;;;155.98;18.20;;;;;;;14.13;97.33;94298.78;5062411;28;20086;-88
2022/12/24 02:56:01;;;;;;;48.83;13.80;;;;;;;13.88;100.00;94309.75;5062352;28;20078;-88
2022/12/24 02:58:45;;;;;;;527.58;38.55;;;;;;;13.87;94.31;94302.94;5079988;28;20064;-88
2022/12/24 03:01:20;;;;;;;73.18;11.18;;;;;;;14.24;93.86;94317.81;5080309;28;20039;-88
2022/12/24 03:03:54;;;;;;;1135.05;75.20;;;;;;;13.41;95.64;94328.84;5062232;28;20349;-88
2022/12/24 03:06:38;;;;;;;1095.97;81.85;;;;;;;12.41;100.00;94336.41;5080078;28;20165;-87
2022/12/24 03:09:26;;;;;;;195.57;16.10;;;;;;;13.39;100.00;94323.88;5079887;28;20497;-88
2022/12/24 03:11:59;;;;;;;420.95;29.45;;;;;;;13.59;100.00;94329.16;5062283;28;20032;-88
2022/12/24 03:14:26;;;;;;;78.55;14.57;;;;;;;13.75;100.00;94319.16;5062157;28;20031;-87
2022/12/24 03:16:51;;;;;;;713.40;47.03;;;;;;;12.70;100.00;94309.28;5062046;28;20021;-87
2022/12/24 03:19:19;;;;;;;23.48;10.65;;;;;;;13.52;100.00;94309.25;5079834;28;20422;-88
2022/12/24 03:21:45;;;;;;;598.33;43.90;;;;;;;12.98;100.00;94301.56;5062303;28;20349;-88
2022/12/24 03:24:11;;;;;;;724.72;44.25;;;;;;;12.44;100.00;94280.66;5062240;28;20034;-87
2022/12/24 03:26:37;;;;;;;431.73;30.58;;;;;;;12.51;100.00;94275.06;5062096;28;20119;-88
2022/12/24 03:29:06;;;;;;;27.77;14.20;;;;;;;13.11;100.00;94278.25;5061655;28;20028;-89
2022/12/24 03:31:59;;;;;;;436.10;26.50;;;;;;;13.13;100.00;94284.03;5061816;28;20032;-88
2022/12/24 03:34:39;;;;;;;535.47;34.07;;;;;;;13.06;100.00;94280.94;5075516;28;20085;-88
2022/12/24 03:37:04;;;;;;;94.40;12.13;;;;;;;13.34;100.00;94268.72;5061668;28;20031;-88
2022/12/24 03:39:29;;;;;;;449.27;28.88;;;;;;;13.51;100.00;94251.66;5044814;28;20024;-88
2022/12/24 03:41:55;;;;;;;475.75;24.30;;;;;;;12.71;100.00;94252.22;5061977;28;20369;-88
2022/12/24 03:44:20;;;;;;;76.40;14.00;;;;;;;13.15;100.00;94264.22;5079667;28;20436;-88
2022/12/24 03:46:46;;;;;;;577.28;36.22;;;;;;;12.00;100.00;94282.41;5079583;28;20033;-88
2022/12/24 03:49:11;;;;;;;54.53;17.92;;;;;;;13.03;100.00;94302.56;5061185;28;20024;-88
2022/12/24 03:51:36;;;;;;;60.13;15.88;;;;;;;13.33;100.00;94317.13;5079608;28;20340;-88
2022/12/24 03:54:02;;;;;;;236.70;23.85;;;;;;;12.92;100.00;94296.66;5079585;28;20028;-88
2022/12/24 03:56:27;;;;;;;179.38;18.75;;;;;;;13.27;100.00;94295.38;5079444;28;20037;-88
2022/12/24 03:58:53;;;;;;;180.10;17.38;;;;;;;13.28;100.00;94296.16;5079451;28;20036;-88
2022/12/24 04:01:18;;;;;;;42.97;13.48;;;;;;;13.61;100.00;94284.91;5079405;28;20039;-88
2022/12/24 04:03:44;;;;;;;33.80;13.88;;;;;;;13.54;100.00;94296.56;5061488;28;20039;-88
2022/12/24 04:06:12;;;;;;;39.60;14.10;;;;;;;13.98;100.00;94291.13;5044419;28;20028;-88
2022/12/24 04:08:38;;;;;;;496.02;35.13;;;;;;;13.12;100.00;94272.69;5079304;28;20033;-88
2022/12/24 04:11:05;;;;;;;96.95;16.90;;;;;;;13.82;100.00;94280.09;5044594;28;20394;-88
2022/12/24 04:13:31;;;;;;;1040.75;59.30;;;;;;;13.07;100.00;94267.53;5061103;28;20035;-88
2022/12/24 04:16:07;;;;;;;671.47;32.28;;;;;;;13.11;100.00;94262.47;5061186;28;20033;-87
2022/12/24 04:18:34;;;;;;;86.65;15.82;;;;;;;12.84;100.00;94254.16;5060914;28;20025;-88
2022/12/24 04:20:59;;;;;;;136.95;18.00;;;;;;;12.86;100.00;94252.00;5044480;28;20021;-88
2022/12/24 04:23:25;;;;;;;35.20;14.50;;;;;;;12.93;100.00;94253.53;5078933;28;20029;-87
2022/12/24 04:25:50;;;;;;;34.38;13.85;;;;;;;13.35;100.00;94257.13;5060479;28;20024;-87
2022/12/24 04:28:16;;;;;;;156.05;17.98;;;;;;;12.46;100.00;94254.09;5061219;28;20032;-86
2022/12/24 04:30:42;;;;;;;70.65;16.65;;;;;;;13.09;100.00;94264.59;5055995;28;20058;-86
2022/12/24 04:33:08;;;;;;;460.05;27.23;;;;;;;13.20;100.00;94254.69;5074601;28;20032;-87
2022/12/24 04:35:38;;;;;;;26.58;13.15;;;;;;;13.78;100.00;94245.66;5071137;28;20056;-87
2022/12/24 04:38:03;;;;;;;32.70;14.43;;;;;;;13.84;100.00;94243.72;5075211;28;20028;-87
2022/12/24 04:40:28;;;;;;;84.65;16.17;;;;;;;13.96;100.00;94243.22;5086487;28;20348;-89
2022/12/24 04:42:54;;;;;;;42.03;14.77;;;;;;;13.82;100.00;94230.81;5080089;28;20024;-87
2022/12/24 04:45:20;;;;;;;85.72;16.50;;;;;;;13.51;100.00;94230.59;5080788;28;20050;-87
2022/12/24 04:47:45;;;;;;;401.35;30.42;;;;;;;13.37;100.00;94226.03;5098585;28;20444;-87
2022/12/24 04:50:10;;;;;;;217.95;21.67;;;;;;;13.43;100.00;94216.22;5098337;28;20049;-88
2022/12/24 04:52:36;;;;;;;69.63;13.65;;;;;;;13.95;100.00;94212.69;5063502;28;20020;-88
2022/12/24 04:55:02;;;;;;;48.10;14.82;;;;;;;13.91;100.00;94223.03;5080284;28;20016;-87
2022/12/24 04:57:31;;;;;;;59.33;14.35;;;;;;;13.87;100.00;94214.16;5098501;28;20059;-87
2022/12/24 04:59:57;;;;;;;1004.65;49.53;;;;;;;13.38;100.00;94203.91;5080276;28;20028;-87
2022/12/24 05:02:22;;;;;;;685.58;39.58;;;;;;;13.30;100.00;94199.31;5098440;28;20039;-87
2022/12/24 05:04:48;;;;;;;98.72;18.40;;;;;;;13.47;100.00;94198.78;5080091;28;20035;-87
2022/12/24 05:07:16;;;;;;;233.55;17.05;;;;;;;13.48;100.00;94192.47;5098303;28;20425;-87
2022/12/24 05:09:44;;;;;;;708.63;47.92;;;;;;;13.39;100.00;94189.69;5080424;28;20158;-87
2022/12/24 05:12:13;;;;;;;70.80;12.85;;;;;;;13.74;100.00;94175.44;5082556;28;20115;-88
2022/12/24 05:14:40;;;;;;;60.42;12.73;;;;;;;13.38;100.00;94185.50;5060186;28;20117;-87
2022/12/24 05:17:05;;;;;;;101.38;15.95;;;;;;;13.17;100.00;94190.31;5077562;28;20154;-87
2022/12/24 05:19:31;;;;;;;422.30;27.40;;;;;;;12.63;100.00;94185.31;5043210;28;20441;-87
2022/12/24 05:27:24;;;;;;;121.25;14.82;;;;;;;13.66;100.00;94179.50;5062308;28;20057;-88
2022/12/24 05:29:50;;;;;;;124.65;14.63;;;;;;;13.61;100.00;94188.28;5059856;28;20044;-87
2022/12/24 05:32:15;;;;;;;49.47;10.70;;;;;;;13.45;100.00;94184.34;5059574;28;20043;-87
2022/12/24 05:34:42;;;;;;;104.13;13.02;;;;;;;13.32;100.00;94180.59;5077484;28;20032;-87
2022/12/24 05:37:07;;;;;;;576.03;28.92;;;;;;;13.32;100.00;94181.38;5077482;28;20028;-87
2022/12/24 05:39:32;;;;;;;37.80;10.15;;;;;;;13.71;100.00;94176.81;5077797;28;20294;-87
2022/12/24 05:41:58;;;;;;;25.67;9.45;;;;;;;13.89;100.00;94169.88;5059668;28;20039;-87
2022/12/24 05:44:24;;;;;;;21.38;8.15;;;;;;;13.65;100.00;94157.69;5077313;28;20028;-87
2022/12/24 05:46:49;;;;;;;170.25;15.05;;;;;;;13.03;100.00;94157.91;5059153;28;20058;-87
2022/12/24 05:49:15;;;;;;;166.55;13.70;;;;;;;13.45;100.00;94168.56;5059651;28;20038;-87
2022/12/24 05:51:40;;;;;;;55.17;8.52;;;;;;;13.59;100.00;94164.09;5059565;28;20032;-87
2022/12/24 05:54:12;;;;;;;636.83;38.47;;;;;;;13.43;100.00;94172.28;5059302;28;20024;-87
2022/12/24 05:56:37;;;;;;;258.73;18.40;;;;;;;13.14;100.00;94178.50;5059387;28;20032;-87
2022/12/24 05:59:03;;;;;;;39.38;9.60;;;;;;;13.60;100.00;94191.22;5077348;28;20040;-86
2022/12/24 06:01:28;;;;;;;107.78;11.68;;;;;;;13.50;100.00;94187.69;5058827;28;20119;-87
2022/12/24 06:03:55;;;;;;;25.08;7.80;;;;;;;13.99;100.00;94190.75;5058399;28;20052;-87
2022/12/24 06:06:23;;;;;;;336.83;19.45;;;;;;;13.73;100.00;94195.72;5059255;28;20047;-86
2022/12/24 06:08:50;;;;;;;729.50;40.42;;;;;;;13.64;100.00;94192.97;5058867;28;20059;-87
2022/12/24 06:11:18;;;;;;;141.80;11.55;;;;;;;13.59;100.00;94203.59;5077163;28;20182;-87
2022/12/24 06:13:44;;;;;;;33.60;7.57;;;;;;;13.54;100.00;94216.84;5059013;28;20032;-87
2022/12/24 06:16:17;;;;;;;17.23;6.38;;;;;;;13.97;100.00;94200.81;5076772;28;20154;-87
2022/12/24 06:18:43;;;;;;;118.28;9.70;;;;;;;13.75;100.00;94198.06;5058846;28;20047;-87
2022/12/24 06:21:09;;;;;;;29.83;6.28;;;;;;;13.34;100.00;94210.84;5058957;28;20036;-87
2022/12/24 06:23:37;;;;;;;42.85;8.50;;;;;;;13.58;100.00;94215.19;5059008;28;20060;-86
2022/12/24 06:26:03;;;;;;;42.55;6.88;;;;;;;13.63;100.00;94216.97;5058672;28;20047;-87
2022/12/24 06:28:31;;;;;;;28.05;7.30;;;;;;;13.64;100.00;94229.03;5059169;28;20418;-87
2022/12/24 06:30:57;;;;;;;23.02;7.13;;;;;;;13.53;100.00;94250.25;5059156;28;20424;-87
2022/12/24 06:33:22;;;;;;;93.55;10.18;;;;;;;13.70;100.00;94264.72;5059042;28;20048;-87
2022/12/24 06:35:48;;;;;;;69.22;7.85;;;;;;;13.00;100.00;94274.97;5058920;28;20492;-87
2022/12/24 06:38:14;;;;;;;35.15;7.78;;;;;;;13.23;100.00;94283.84;5076955;28;20056;-87
2022/12/24 06:40:42;;;;;;;37.55;6.75;;;;;;;13.83;100.00;94286.91;5058404;28;20040;-87
2022/12/24 06:43:08;;;;;;;159.88;14.75;;;;;;;13.45;100.00;94289.63;5058668;28;20037;-86
2022/12/24 06:45:33;;;;;;;21.92;8.25;;;;;;;13.71;100.00;94292.66;5076641;28;20047;-87
2022/12/24 06:47:59;;;;;;;20.00;7.75;;;;;;;13.61;100.00;94282.28;5058512;28;20123;-87
2022/12/24 06:50:25;;;;;;;29.63;8.27;;;;;;;13.49;100.00;94288.00;5058606;28;20071;-87
2022/12/24 06:52:50;;;;;;;60.85;8.57;;;;;;;12.94;100.00;94281.38;5076825;28;20056;-87
2022/12/24 06:55:25;;;;;;;293.35;16.10;;;;;;;12.90;100.00;94288.25;5058893;28;20037;-87
2022/12/24 06:57:50;;;;;;;25.40;8.63;;;;;;;13.16;100.00;94293.97;5058790;28;20435;-86
2022/12/24 07:00:16;;;;;;;42.75;8.27;;;;;;;12.93;100.00;94285.06;5058246;28;20044;-89
2022/12/24 07:02:43;;;;;;;51.50;8.25;;;;;;;13.38;100.00;94285.50;5068950;28;20035;-87
2022/12/24 07:05:10;;;;;;;11.75;6.47;;;;;;;13.51;100.00;94284.00;5079645;28;20036;-87
2022/12/24 07:07:43;;;;;;;56.67;7.20;;;;;;;13.65;100.00;94289.31;5058356;28;20064;-87
2022/12/24 07:10:12;;;;;;;;;;;;;;;13.83;100.00;94294.81;5077135;28;20040;-87
2022/12/24 07:12:38;;;;;;;23.90;6.63;;;;;;;13.25;100.00;94291.47;5076552;28;19915;-87
2022/12/24 07:15:04;;;;;;;22.42;7.15;;;;;;;13.73;100.00;94295.78;5079096;28;20032;-87
2022/12/24 07:17:29;;;;;;;21.77;6.45;;;;;;;13.79;100.00;94294.59;5062311;28;20123;-87
2022/12/24 07:19:54;;;;;;;12.90;5.95;;;;;;;13.78;100.00;94289.66;5044953;28;20068;-87
2022/12/24 07:22:20;;;;;;;293.55;15.40;;;;;;;13.27;100.00;94294.59;5064023;28;20040;-87
2022/12/24 07:24:45;;;;;;;297.30;15.63;;;;;;;13.07;100.00;94291.19;5065561;28;20128;-87
2022/12/24 07:27:11;;;;;;;21.20;7.25;;;;;;;13.63;100.00;94280.94;5100286;28;20086;-87
2022/12/24 07:29:36;;;;;;;22.08;6.78;;;;;;;13.90;100.00;94282.03;5082293;28;20035;-87
2022/12/24 07:32:02;;;;;;;95.40;9.32;;;;;;;14.03;100.00;94298.97;5077590;28;20047;-86
2022/12/24 07:34:27;;;;;;;27.10;6.55;;;;;;;14.19;100.00;94290.78;5079392;28;20029;-88
2022/12/24 07:36:53;;;;;;;40.65;8.18;;;;;;;13.62;100.00;94292.50;5061960;28;20046;-87
2022/12/24 07:39:18;;;;;;;41.55;7.60;;;;;;;14.00;100.00;94305.56;5079616;28;20032;-87
2022/12/24 07:41:43;;;;;;;36.65;7.40;;;;;;;13.77;100.00;94317.03;5061991;28;20040;-88
2022/12/24 07:44:13;;;;;;;380.58;19.75;;;;;;;14.06;100.00;94318.66;5061860;28;20040;-87
2022/12/24 07:46:38;;;;;;;22.27;7.13;;;;;;;13.88;100.00;94331.59;5061341;28;20041;-88
2022/12/24 07:49:04;;;;;;;69.43;10.05;;;;;;;13.77;100.00;94320.44;5061895;28;20040;-88
2022/12/24 07:51:29;;;;;;;50.35;9.85;;;;;;;14.11;100.00;94321.22;5079640;28;20083;-87
2022/12/24 07:53:55;;;;;;;67.75;11.00;;;;;;;13.75;100.00;94324.44;5061500;28;20055;-86
2022/12/24 07:56:20;;;;;;;63.33;9.30;;;;;;;14.05;100.00;94319.72;5044630;28;20032;-87
2022/12/24 07:58:46;;;;;;;67.13;8.90;;;;;;;13.46;100.00;94315.66;5079550;28;20434;-88
2022/12/24 08:01:11;;;;;;;43.75;7.38;;;;;;;14.11;100.00;94321.97;5044648;28;20028;-86
2022/12/24 08:03:37;;;;;;;502.70;25.42;;;;;;;13.29;100.00;94311.66;5078979;28;20394;-87
2022/12/24 08:06:02;;;;;;;574.10;24.02;;;;;;;12.89;100.00;94323.50;5079244;28;20040;-87
2022/12/24 08:08:28;;;;;;;307.58;15.85;;;;;;;14.04;100.00;94315.53;5079305;28;20044;-87
2022/12/24 08:10:53;;;;;;;194.45;12.18;;;;;;;14.02;100.00;94317.66;5078942;28;20033;-88
2022/12/24 08:13:19;;;;;;;135.80;10.90;;;;;;;14.22;100.00;94329.72;5060545;28;20133;-90
2022/12/24 08:15:44;;;;;;;750.78;42.63;;;;;;;13.98;100.00;94334.06;5060577;28;20037;-91
2022/12/24 08:18:11;;;;;;;318.25;18.85;;;;;;;14.54;100.00;94330.72;5044209;28;20082;-90
2022/12/24 08:20:39;;;;;;;352.50;20.80;;;;;;;14.99;100.00;94314.31;5060614;28;20028;-90
2022/12/24 08:23:06;;;;;;;471.38;29.80;;;;;;;14.51;100.00;94308.38;5060519;28;20436;-91
2022/12/24 08:25:32;;;;;;;654.22;37.10;;;;;;;14.00;100.00;94310.84;5073289;28;20028;-91
2022/12/24 08:27:57;;;;;;;189.35;14.82;;;;;;;14.04;100.00;94312.91;5080488;28;20031;-91
2022/12/24 08:30:23;;;;;;;255.13;16.77;;;;;;;14.59;100.00;94306.09;5098583;28;20380;-91
2022/12/24 08:32:48;;;;;;;67.45;10.18;;;;;;;14.83;100.00;94298.78;5080588;28;20040;-90
2022/12/24 08:35:14;;;;;;;624.33;38.58;;;;;;;14.36;100.00;94298.13;5080426;28;20103;-91
2022/12/24 08:37:39;;;;;;;487.77;25.33;;;;;;;14.48;100.00;94310.81;5060277;28;20032;-90
2022/12/24 08:40:05;;;;;;;125.18;11.32;;;;;;;14.57;100.00;94307.19;5043614;28;20032;-90
2022/12/24 08:42:31;;;;;;;765.53;49.78;;;;;;;14.20;100.00;94302.88;5060389;28;20028;-91
2022/12/24 08:44:56;;;;;;;216.93;12.27;;;;;;;14.40;100.00;94313.03;5060109;28;20429;-91
2022/12/24 08:47:21;;;;;;;587.28;33.00;;;;;;;13.96;100.00;94316.97;5060126;28;20040;-91
2022/12/24 08:49:47;;;;;;;630.55;34.97;;;;;;;14.00;100.00;94315.34;5077986;28;20353;-90
2022/12/24 08:52:12;;;;;;;21.05;7.93;;;;;;;14.77;100.00;94320.28;5060384;28;20172;-90
2022/12/24 08:54:38;;;;;;;95.32;9.88;;;;;;;15.24;100.00;94334.09;5077896;28;20384;-90
2022/12/24 08:57:03;;;;;;;470.85;24.33;;;;;;;14.89;100.00;94336.41;5078000;28;20089;-90
2022/12/24 08:59:29;;;;;;;32.38;7.70;;;;;;;15.48;100.00;94326.97;5060753;28;20032;-90
2022/12/24 09:01:54;;;;;;;248.68;16.92;;;;;;;15.15;100.00;94332.44;5080152;28;20036;-90
2022/12/24 09:04:19;;;;;;;492.77;27.27;;;;;;;15.41;100.00;94338.72;5097502;28;20119;-90
2022/12/24 09:06:45;;;;;;;13.50;6.60;;;;;;;15.81;100.00;94339.97;5098038;28;20110;-89
2022/12/24 09:09:10;;;;;;;19.88;6.55;;;;;;;16.11;100.00;94348.25;5078881;28;20115;-89
2022/12/24 09:11:36;;;;;;;177.23;10.90;;;;;;;15.84;97.56;94366.53;5060191;28;20044;-89
2022/12/24 09:14:01;;;;;;;38.53;6.50;;;;;;;16.52;98.32;94376.31;5059950;28;20115;-89
2022/12/24 09:16:27;;;;;;;647.33;34.60;;;;;;;15.29;98.35;94372.78;5059991;28;20040;-89
2022/12/24 09:18:52;;;;;;;101.03;7.40;;;;;;;16.24;97.84;94388.91;5064150;28;20074;-89
2022/12/24 09:21:18;;;;;;;161.70;10.98;;;;;;;16.09;94.12;94390.81;5059441;28;20438;-90
2022/12/24 09:23:45;;;;;;;414.92;24.05;;;;;;;16.37;89.46;94397.84;5059592;28;20037;-90
2022/12/24 09:26:20;;;;;;;7.63;4.47;;;;;;;16.84;90.16;94410.63;5059246;28;20028;-90
2022/12/24 09:28:46;;;;;;;14.95;4.75;;;;;;;16.85;91.49;94427.31;5063695;28;20035;-90
2022/12/24 09:31:11;;;;;;;166.27;10.20;;;;;;;16.25;93.75;94435.38;5079581;28;20036;-90
2022/12/24 09:33:39;;;;;;;19.00;6.20;;;;;;;16.08;97.11;94433.44;5079494;28;20066;-90
2022/12/24 09:36:06;;;;;;;195.90;13.95;;;;;;;15.81;97.35;94437.69;5062248;28;20043;-89
2022/12/24 09:38:32;;;;;;;48.53;8.38;;;;;;;15.49;100.00;94427.00;5097028;28;20504;-89
2022/12/24 09:40:59;;;;;;;211.15;12.90;;;;;;;15.51;100.00;94424.09;5079260;28;20036;-89
2022/12/24 09:43:32;;;;;;;99.85;10.05;;;;;;;15.69;100.00;94425.78;5078879;28;20460;-89
2022/12/24 09:46:12;;;;;;;32.58;7.20;;;;;;;16.19;100.00;94424.16;5079012;28;20119;-89
2022/12/24 09:48:41;;;;;;;13.80;7.07;;;;;;;16.44;98.79;94424.63;5079015;28;20046;-89
2022/12/24 09:51:11;;;;;;;41.83;6.10;;;;;;;16.81;96.52;94420.00;5097286;28;20019;-89
2022/12/24 09:53:42;;;;;;;64.30;8.27;;;;;;;16.50;94.60;94423.44;5078857;28;20103;-90
2022/12/24 09:56:23;;;;;;;21.35;8.27;;;;;;;16.42;91.27;94431.28;5077809;28;20024;-90
2022/12/24 09:59:21;;;;;;;16.35;7.05;;;;;;;16.67;89.75;94432.53;5058865;28;20032;-90
2022/12/24 10:01:48;;;;;;;13.23;6.15;;;;;;;16.87;94.19;94438.38;5053686;28;20048;-89
2022/12/24 10:04:16;;;;;;;23.55;6.72;;;;;;;17.12;91.10;94442.22;5073248;28;20027;-89
2022/12/24 10:06:41;;;;;;;22.38;5.88;;;;;;;16.98;89.49;94444.94;5078566;28;20027;-90
2022/12/24 10:09:25;;;;;;;270.55;16.85;;;;;;;16.74;84.90;94453.25;5096778;28;20046;-90
2022/12/24 10:12:31;;;;;;;164.10;9.88;;;;;;;17.14;87.84;94450.63;5096763;28;20085;-90
2022/12/24 10:15:08;;;;;;;19.70;6.40;;;;;;;16.52;94.12;94445.06;5097015;28;20027;-89
2022/12/24 10:17:57;;;;;;;416.10;25.80;;;;;;;16.42;92.90;94429.44;5078674;28;20024;-90
2022/12/24 10:20:31;;;;;;;628.85;26.70;;;;;;;16.27;95.19;94429.81;5062239;28;20056;-89
2022/12/24 10:23:15;;;;;;;349.95;18.10;;;;;;;15.51;100.00;94411.66;5096893;28;20031;-90
2022/12/24 10:25:59;;;;;;;;;;;;;;;15.92;100.00;94399.44;5097101;28;20035;-90
2022/12/24 10:28:33;;;;;;;18.98;6.75;;;;;;;16.32;100.00;94393.47;5078557;28;20370;-91
2022/12/24 10:31:03;;;;;;;107.43;10.20;;;;;;;16.59;99.39;94404.16;5078567;28;20059;-90
2022/12/24 10:33:32;;;;;;;13.25;6.63;;;;;;;16.85;96.00;94401.63;5078386;28;20445;-90
2022/12/24 10:35:58;;;;;;;41.08;8.73;;;;;;;16.31;89.81;94399.03;5096488;28;20387;-90
2022/12/24 10:38:24;;;;;;;20.35;6.57;;;;;;;16.79;94.77;94403.66;5078235;28;20024;-92
2022/12/24 10:40:52;;;;;;;134.30;10.18;;;;;;;16.64;97.07;94411.94;5070050;28;20028;-90
2022/12/24 10:43:20;;;;;;;415.98;24.23;;;;;;;15.71;99.14;94411.50;5058341;28;20028;-91
2022/12/24 10:45:50;;;;;;;258.67;13.80;;;;;;;16.02;98.62;94424.03;5083216;28;20028;-90
2022/12/24 10:48:22;;;;;;;782.50;38.33;;;;;;;15.68;95.29;94431.34;5078659;28;20024;-91
2022/12/24 10:51:13;;;;;;;11.95;4.72;;;;;;;16.41;96.10;94427.88;5082409;28;20027;-89
2022/12/24 10:53:48;;;;;;;379.42;15.63;;;;;;;16.69;94.42;94425.06;5082586;28;20028;-90
2022/12/24 10:56:15;;;;;;;521.42;22.77;;;;;;;16.09;95.16;94427.06;5082152;28;20027;-90
2022/12/24 10:58:59;;;;;;;354.40;15.35;;;;;;;16.74;94.27;94440.78;5065651;28;20028;-90
2022/12/24 11:01:45;;;;;;;68.65;6.15;;;;;;;16.93;92.18;94440.56;5082422;28;20035;-90
2022/12/24 11:04:17;;;;;;;555.30;24.00;;;;;;;16.47;88.10;94429.31;5100145;28;20027;-90
2022/12/24 11:06:52;;;;;;;732.45;40.35;;;;;;;16.18;96.39;94422.59;5065961;28;20173;-91
2022/12/24 11:09:42;;;;;;;295.55;16.27;;;;;;;16.22;97.63;94426.22;5100139;28;20028;-89
2022/12/24 11:12:34;;;;;;;148.88;9.15;;;;;;;16.46;95.90;94414.53;5082731;28;20032;-90
2022/12/24 11:15:06;;;;;;;45.67;5.32;;;;;;;16.77;92.45;94411.09;5065343;28;20438;-88
2022/12/24 11:17:32;;;;;;;780.45;44.55;;;;;;;15.29;100.00;94415.00;5065563;28;20383;-90
2022/12/24 11:19:57;;;;;;;360.83;19.60;;;;;;;16.05;98.94;94412.88;5081820;28;20353;-87
2022/12/24 11:22:29;;;;;;;93.80;7.57;;;;;;;16.60;94.31;94411.00;5081989;28;20032;-88
2022/12/24 11:25:01;;;;;;;138.05;8.35;;;;;;;16.40;89.58;94413.09;5081289;28;20038;-89